Portada
METAR-TAF:

METAR-TAF

Aeroports :

Nanquín, Xina

latitud: 32-00N, longitud: 118-48E, altitud: 12 m

Observació

L'informe es va fer fa 29 minuts, a les 14:00 UTC
Vent calma
Temperatura 7°C
Humitat 76%
Pressió 1022 hPa
Visibilitat 10 km o més
sense núvols per sota de 1500 mi sense presència de cumulonimbus.

METAR: ZSNJ 091400Z 00000MPS CAVOK 07/03 Q1022 NOSIG

Hora: 22:29 (14:29 UTC)

Pronòstic

L'informe es va fer fa 5 hores i 23 minuts, a les 09:06 UTC
Pronòstic vàlid del 09 a les 12 UTC al 10 a les 12 UTC
Vent 6 kt del Sud/Sud-Oest
Visibilitat: 3000 m
calitja
Evolucionant progressivament
l' 09 a les 21 UTC al 09 a les 23 UTC
Visibilitat: 1600 m
boirina
Evolucionant progressivament
l' 10 a les 00 UTC al 10 a les 01 UTC
Visibilitat: 3000 m
calitja

TAF: ZSNJ 090906Z 0912/1012 21003MPS 3000 HZ NSC TX17/1006Z TN04/0921Z BECMG 0921/0923 1600 BR BECMG 1000/1001 3000 HZ

Observacions i pronòstics meteorològics de més de 4000 aeroports (METAR i TAF).

Les estacions disponibles són els punts grocs i vermells al mapa.

Posi el ratolí al punt desitjat per veure el nom de l'estació.

Feu clic per veure les observacions i els pronòstics meteorològics.

Per canviar el mapa: feu clic els botons verds amb una creu de color negre per apropar; al botó verd amb un guió per allunyar la imatge; o en les fletxes verdes per a mapes adjacents.


METAR-TAF: